Terminal Aerodrome Forecast
Issued by NWS

Home | Current Version | Previous Version | Graphics & Text | Print | Product List | Glossary On
Versions: 1 2 3 4 5 6 7 8 9 10 11 12 13 14 15 16 17 18 19 20 21 22 23 24 25 26 27 28 29 30 31
000
FTUS45 KGGW 241700
TAFGDV
TAF
KGDV 241730Z 2418/2518 26012KT P6SM -RA SCT015 BKN040
     FM241900 28017G23KT 4SM -RA BR OVC012
     FM250200 29019G27KT P6SM VCSH OVC025
     FM250700 28013KT P6SM OVC040
      AMD LTD TO CLD VIS AND WIND=

USA.gov is the U.S. government's official web portal to all federal, state and local government web resources and services.